sensor_id;sensor_type;location;lat;lon;timestamp;pressure;altitude;pressure_sealevel;temperature;humidity
11682;BME280;5897;42.640;23.310;2022-09-09T00:00:42;94137.34;;;18.20;92.48
11682;BME280;5897;42.640;23.310;2022-09-09T00:03:14;94129.81;;;18.29;92.52
11682;BME280;5897;42.640;23.310;2022-09-09T00:05:50;94134.88;;;18.45;91.31
11682;BME280;5897;42.640;23.310;2022-09-09T00:08:28;94134.78;;;18.40;91.88
11682;BME280;5897;42.640;23.310;2022-09-09T00:11:01;94144.56;;;18.46;91.43
11682;BME280;5897;42.640;23.310;2022-09-09T00:13:34;94127.78;;;18.39;91.16
11682;BME280;5897;42.640;23.310;2022-09-09T00:16:07;94137.69;;;18.36;91.60
11682;BME280;5897;42.640;23.310;2022-09-09T00:18:41;94142.19;;;18.25;92.74
11682;BME280;5897;42.640;23.310;2022-09-09T00:21:13;94136.06;;;18.30;92.48
11682;BME280;5897;42.640;23.310;2022-09-09T00:23:45;94122.31;;;18.39;91.35
11682;BME280;5897;42.640;23.310;2022-09-09T00:26:19;94122.31;;;18.39;90.92
11682;BME280;5897;42.640;23.310;2022-09-09T00:28:54;94116.84;;;18.39;90.80
11682;BME280;5897;42.640;23.310;2022-09-09T00:31:29;94099.09;;;18.34;90.28
11682;BME280;5897;42.640;23.310;2022-09-09T00:34:00;94113.06;;;18.51;89.80
11682;BME280;5897;42.640;23.310;2022-09-09T00:36:32;94091.00;;;18.40;89.63
11682;BME280;5897;42.640;23.310;2022-09-09T00:39:02;94098.19;;;18.37;90.73
11682;BME280;5897;42.640;23.310;2022-09-09T00:41:40;94091.53;;;18.15;92.62
11682;BME280;5897;42.640;23.310;2022-09-09T00:44:24;94090.41;;;18.07;93.52
11682;BME280;5897;42.640;23.310;2022-09-09T00:47:03;94090.59;;;18.18;93.57
11682;BME280;5897;42.640;23.310;2022-09-09T00:49:39;94098.34;;;18.34;91.56
11682;BME280;5897;42.640;23.310;2022-09-09T00:52:22;94098.84;;;18.32;91.76
11682;BME280;5897;42.640;23.310;2022-09-09T00:55:00;94096.94;;;18.38;91.09
11682;BME280;5897;42.640;23.310;2022-09-09T00:57:31;94094.69;;;18.37;91.24
11682;BME280;5897;42.640;23.310;2022-09-09T01:00:20;94101.94;;;18.40;90.72
11682;BME280;5897;42.640;23.310;2022-09-09T01:03:07;94100.06;;;18.46;90.32
11682;BME280;5897;42.640;23.310;2022-09-09T01:05:40;94096.38;;;18.34;90.82
11682;BME280;5897;42.640;23.310;2022-09-09T01:08:24;94100.72;;;18.41;90.84
11682;BME280;5897;42.640;23.310;2022-09-09T01:10:56;94096.09;;;18.47;90.52
11682;BME280;5897;42.640;23.310;2022-09-09T01:13:26;94100.91;;;18.52;89.68
11682;BME280;5897;42.640;23.310;2022-09-09T01:15:57;94102.31;;;18.47;89.93
11682;BME280;5897;42.640;23.310;2022-09-09T01:18:27;94099.09;;;18.49;89.63
11682;BME280;5897;42.640;23.310;2022-09-09T01:21:04;94105.81;;;18.48;89.76
11682;BME280;5897;42.640;23.310;2022-09-09T01:23:49;94099.03;;;18.43;90.35
11682;BME280;5897;42.640;23.310;2022-09-09T01:26:26;94099.09;;;18.49;89.75
11682;BME280;5897;42.640;23.310;2022-09-09T01:28:54;94094.22;;;18.38;89.67
11682;BME280;5897;42.640;23.310;2022-09-09T01:31:26;94087.38;;;18.19;91.09
11682;BME280;5897;42.640;23.310;2022-09-09T01:33:54;94094.72;;;18.28;91.24
11682;BME280;5897;42.640;23.310;2022-09-09T01:36:26;94101.22;;;18.16;92.04
11682;BME280;5897;42.640;23.310;2022-09-09T01:38:56;94113.78;;;18.22;91.96
11682;BME280;5897;42.640;23.310;2022-09-09T01:41:23;94111.44;;;18.30;90.79
11682;BME280;5897;42.640;23.310;2022-09-09T01:43:53;94105.97;;;18.30;91.24
11682;BME280;5897;42.640;23.310;2022-09-09T01:46:22;94113.31;;;18.24;91.74
11682;BME280;5897;42.640;23.310;2022-09-09T01:48:50;94115.09;;;18.27;91.24
11682;BME280;5897;42.640;23.310;2022-09-09T01:51:17;94118.78;;;18.24;90.57
11682;BME280;5897;42.640;23.310;2022-09-09T01:53:45;94118.31;;;18.25;90.71
11682;BME280;5897;42.640;23.310;2022-09-09T01:56:21;94123.78;;;18.25;90.99
11682;BME280;5897;42.640;23.310;2022-09-09T01:59:02;94119.97;;;18.08;91.85
11682;BME280;5897;42.640;23.310;2022-09-09T02:01:41;94118.22;;;18.20;90.88
11682;BME280;5897;42.640;23.310;2022-09-09T02:04:28;94114.38;;;18.26;89.93
11682;BME280;5897;42.640;23.310;2022-09-09T02:06:57;94116.72;;;18.19;90.36
11682;BME280;5897;42.640;23.310;2022-09-09T02:09:25;94116.59;;;18.28;89.75
11682;BME280;5897;42.640;23.310;2022-09-09T02:11:57;94116.53;;;18.22;89.36
11682;BME280;5897;42.640;23.310;2022-09-09T02:14:30;94109.41;;;18.01;91.15
11682;BME280;5897;42.640;23.310;2022-09-09T02:17:02;94107.72;;;18.04;91.29
11682;BME280;5897;42.640;23.310;2022-09-09T02:19:32;94103.22;;;18.15;90.11
11682;BME280;5897;42.640;23.310;2022-09-09T02:22:00;94100.94;;;18.14;89.88
11682;BME280;5897;42.640;23.310;2022-09-09T02:24:29;94100.56;;;18.06;90.06
11682;BME280;5897;42.640;23.310;2022-09-09T02:27:01;94099.97;;;18.02;90.71
11682;BME280;5897;42.640;23.310;2022-09-09T02:29:33;94090.09;;;18.05;89.98
11682;BME280;5897;42.640;23.310;2022-09-09T02:32:04;94096.56;;;17.93;91.71
11682;BME280;5897;42.640;23.310;2022-09-09T02:34:34;94098.75;;;17.89;91.31
11682;BME280;5897;42.640;23.310;2022-09-09T02:37:03;94093.16;;;17.83;90.81
11682;BME280;5897;42.640;23.310;2022-09-09T02:39:30;94104.13;;;17.98;90.93
11682;BME280;5897;42.640;23.310;2022-09-09T02:41:57;94113.38;;;18.00;90.55
11682;BME280;5897;42.640;23.310;2022-09-09T02:44:23;94124.59;;;18.02;90.59
11682;BME280;5897;42.640;23.310;2022-09-09T02:47:11;94117.72;;;18.07;89.88
11682;BME280;5897;42.640;23.310;2022-09-09T02:49:50;94122.16;;;18.04;89.90
11682;BME280;5897;42.640;23.310;2022-09-09T02:52:29;94117.78;;;17.98;90.06
11682;BME280;5897;42.640;23.310;2022-09-09T02:55:05;94120.34;;;18.01;89.96
11682;BME280;5897;42.640;23.310;2022-09-09T02:57:35;94119.88;;;18.03;90.21
11682;BME280;5897;42.640;23.310;2022-09-09T03:00:03;94110.38;;;17.98;90.08
11682;BME280;5897;42.640;23.310;2022-09-09T03:02:31;94116.56;;;17.99;90.35
11682;BME280;5897;42.640;23.310;2022-09-09T03:04:58;94116.06;;;17.86;90.58
11682;BME280;5897;42.640;23.310;2022-09-09T03:07:25;94118.03;;;17.85;91.00
11682;BME280;5897;42.640;23.310;2022-09-09T03:09:52;94117.50;;;17.81;91.12
11682;BME280;5897;42.640;23.310;2022-09-09T03:12:20;94122.56;;;17.74;91.95
11682;BME280;5897;42.640;23.310;2022-09-09T03:14:46;94123.69;;;17.82;91.95
11682;BME280;5897;42.640;23.310;2022-09-09T03:17:13;94119.53;;;17.72;92.09
11682;BME280;5897;42.640;23.310;2022-09-09T03:19:44;94126.19;;;17.71;92.43
11682;BME280;5897;42.640;23.310;2022-09-09T03:22:11;94129.81;;;17.77;91.93
11682;BME280;5897;42.640;23.310;2022-09-09T03:24:39;94121.22;;;17.69;92.59
11682;BME280;5897;42.640;23.310;2022-09-09T03:27:05;94126.78;;;17.75;92.36
11682;BME280;5897;42.640;23.310;2022-09-09T03:29:32;94117.03;;;17.83;90.62
11682;BME280;5897;42.640;23.310;2022-09-09T03:31:59;94114.63;;;17.76;91.08
11682;BME280;5897;42.640;23.310;2022-09-09T03:34:26;94125.00;;;17.72;91.09
11682;BME280;5897;42.640;23.310;2022-09-09T03:36:54;94120.00;;;17.47;92.82
11682;BME280;5897;42.640;23.310;2022-09-09T03:39:20;94117.41;;;17.20;94.87
11682;BME280;5897;42.640;23.310;2022-09-09T03:41:47;94120.19;;;17.11;96.84
11682;BME280;5897;42.640;23.310;2022-09-09T03:44:14;94123.50;;;17.15;97.01
11682;BME280;5897;42.640;23.310;2022-09-09T03:46:41;94111.91;;;17.29;95.60
11682;BME280;5897;42.640;23.310;2022-09-09T03:49:08;94120.50;;;17.36;95.26
11682;BME280;5897;42.640;23.310;2022-09-09T03:51:35;94111.47;;;17.21;96.49
11682;BME280;5897;42.640;23.310;2022-09-09T03:54:05;94111.63;;;17.27;97.17
11682;BME280;5897;42.640;23.310;2022-09-09T03:56:34;94100.84;;;17.00;97.60
11682;BME280;5897;42.640;23.310;2022-09-09T03:59:01;94121.72;;;17.03;98.85
11682;BME280;5897;42.640;23.310;2022-09-09T04:01:28;94125.66;;;17.11;99.06
11682;BME280;5897;42.640;23.310;2022-09-09T04:03:55;94121.94;;;17.23;98.67
11682;BME280;5897;42.640;23.310;2022-09-09T04:06:24;94132.16;;;17.37;97.37
11682;BME280;5897;42.640;23.310;2022-09-09T04:08:51;94125.38;;;17.32;96.81
11682;BME280;5897;42.640;23.310;2022-09-09T04:11:19;94135.25;;;17.39;96.93
11682;BME280;5897;42.640;23.310;2022-09-09T04:13:46;94122.00;;;17.37;95.71
11682;BME280;5897;42.640;23.310;2022-09-09T04:16:14;94127.75;;;17.48;95.35
11682;BME280;5897;42.640;23.310;2022-09-09T04:18:41;94129.84;;;17.53;95.06
11682;BME280;5897;42.640;23.310;2022-09-09T04:21:09;94123.84;;;17.64;93.94
11682;BME280;5897;42.640;23.310;2022-09-09T04:23:38;94125.00;;;17.72;92.77
11682;BME280;5897;42.640;23.310;2022-09-09T04:26:05;94120.81;;;17.62;93.34
11682;BME280;5897;42.640;23.310;2022-09-09T04:28:35;94126.88;;;17.66;93.46
11682;BME280;5897;42.640;23.310;2022-09-09T04:31:06;94123.84;;;17.64;94.46
11682;BME280;5897;42.640;23.310;2022-09-09T04:33:34;94129.13;;;17.67;94.61
11682;BME280;5897;42.640;23.310;2022-09-09T04:36:01;94129.53;;;17.75;94.29
11682;BME280;5897;42.640;23.310;2022-09-09T04:38:28;94134.16;;;17.83;93.06
11682;BME280;5897;42.640;23.310;2022-09-09T04:40:55;94133.75;;;17.99;90.83
11682;BME280;5897;42.640;23.310;2022-09-09T04:43:22;94133.38;;;18.06;90.82
11682;BME280;5897;42.640;23.310;2022-09-09T04:45:52;94148.59;;;17.84;92.12
11682;BME280;5897;42.640;23.310;2022-09-09T04:48:19;94144.41;;;17.74;91.27
11682;BME280;5897;42.640;23.310;2022-09-09T04:50:54;94136.22;;;17.74;92.59
11682;BME280;5897;42.640;23.310;2022-09-09T04:53:21;94114.38;;;17.88;93.15
11682;BME280;5897;42.640;23.310;2022-09-09T04:55:48;94106.97;;;18.03;91.65
11682;BME280;5897;42.640;23.310;2022-09-09T04:58:15;94113.13;;;18.13;90.99
11682;BME280;5897;42.640;23.310;2022-09-09T05:00:42;94111.13;;;18.28;90.08
11682;BME280;5897;42.640;23.310;2022-09-09T05:03:10;94112.91;;;18.40;88.92
11682;BME280;5897;42.640;23.310;2022-09-09T05:05:38;94115.53;;;18.49;89.23
11682;BME280;5897;42.640;23.310;2022-09-09T05:08:06;94097.22;;;18.55;89.49
11682;BME280;5897;42.640;23.310;2022-09-09T05:10:35;94092.13;;;18.62;88.97
11682;BME280;5897;42.640;23.310;2022-09-09T05:13:02;94093.22;;;18.70;88.17
11682;BME280;5897;42.640;23.310;2022-09-09T05:15:29;94102.84;;;18.80;85.57
11682;BME280;5897;42.640;23.310;2022-09-09T05:17:57;94110.66;;;18.87;84.71
11682;BME280;5897;42.640;23.310;2022-09-09T05:20:26;94121.31;;;19.00;83.87
11682;BME280;5897;42.640;23.310;2022-09-09T05:22:53;94107.72;;;19.05;84.72
11682;BME280;5897;42.640;23.310;2022-09-09T05:25:20;94100.03;;;19.24;83.91
11682;BME280;5897;42.640;23.310;2022-09-09T05:27:47;94102.03;;;19.23;83.34
11682;BME280;5897;42.640;23.310;2022-09-09T05:30:15;94100.59;;;19.28;83.23
11682;BME280;5897;42.640;23.310;2022-09-09T05:32:42;94102.47;;;19.36;83.37
11682;BME280;5897;42.640;23.310;2022-09-09T05:35:08;94104.59;;;19.47;83.74
11682;BME280;5897;42.640;23.310;2022-09-09T05:37:36;94110.16;;;19.52;83.03
11682;BME280;5897;42.640;23.310;2022-09-09T05:40:04;94105.75;;;19.60;82.74
11682;BME280;5897;42.640;23.310;2022-09-09T05:42:30;94099.03;;;19.61;82.48
11682;BME280;5897;42.640;23.310;2022-09-09T05:44:57;94111.19;;;19.75;82.00
11682;BME280;5897;42.640;23.310;2022-09-09T05:47:24;94109.66;;;19.74;81.56
11682;BME280;5897;42.640;23.310;2022-09-09T05:49:53;94119.88;;;19.93;79.57
11682;BME280;5897;42.640;23.310;2022-09-09T05:52:20;94121.94;;;19.98;79.73
11682;BME280;5897;42.640;23.310;2022-09-09T05:54:49;94114.44;;;19.99;78.61
11682;BME280;5897;42.640;23.310;2022-09-09T05:57:16;94098.50;;;19.97;79.23
11682;BME280;5897;42.640;23.310;2022-09-09T05:59:44;94112.19;;;20.17;78.83
11682;BME280;5897;42.640;23.310;2022-09-09T06:02:11;94115.28;;;20.25;78.22
11682;BME280;5897;42.640;23.310;2022-09-09T06:04:39;94119.50;;;20.26;78.12
11682;BME280;5897;42.640;23.310;2022-09-09T06:07:05;94130.50;;;20.26;77.24
11682;BME280;5897;42.640;23.310;2022-09-09T06:09:32;94139.69;;;20.03;79.31
11682;BME280;5897;42.640;23.310;2022-09-09T06:12:00;94138.88;;;20.17;79.11
11682;BME280;5897;42.640;23.310;2022-09-09T06:14:27;94133.09;;;20.35;77.83
11682;BME280;5897;42.640;23.310;2022-09-09T06:16:53;94138.47;;;20.49;75.96
11682;BME280;5897;42.640;23.310;2022-09-09T06:19:22;94132.06;;;20.58;75.84
11682;BME280;5897;42.640;23.310;2022-09-09T06:21:49;94131.25;;;20.77;74.16
11682;BME280;5897;42.640;23.310;2022-09-09T06:24:16;94130.25;;;20.80;73.70
11682;BME280;5897;42.640;23.310;2022-09-09T06:26:44;94130.13;;;20.89;72.84
11682;BME280;5897;42.640;23.310;2022-09-09T06:29:13;94131.19;;;20.97;73.12
11682;BME280;5897;42.640;23.310;2022-09-09T06:31:39;94129.28;;;21.09;74.17
11682;BME280;5897;42.640;23.310;2022-09-09T06:34:07;94133.34;;;21.19;74.07
11682;BME280;5897;42.640;23.310;2022-09-09T06:36:36;94124.69;;;21.31;73.39
11682;BME280;5897;42.640;23.310;2022-09-09T06:39:03;94126.25;;;21.43;72.88
11682;BME280;5897;42.640;23.310;2022-09-09T06:41:32;94116.31;;;21.51;70.59
11682;BME280;5897;42.640;23.310;2022-09-09T06:43:59;94123.84;;;21.56;69.90
11682;BME280;5897;42.640;23.310;2022-09-09T06:46:29;94113.59;;;21.57;71.00
11682;BME280;5897;42.640;23.310;2022-09-09T06:48:57;94119.22;;;21.79;69.23
11682;BME280;5897;42.640;23.310;2022-09-09T06:51:26;94131.28;;;21.87;68.00
11682;BME280;5897;42.640;23.310;2022-09-09T06:53:54;94131.34;;;22.03;68.76
11682;BME280;5897;42.640;23.310;2022-09-09T06:56:23;94141.41;;;22.23;68.53
11682;BME280;5897;42.640;23.310;2022-09-09T06:58:51;94128.88;;;22.11;68.66
11682;BME280;5897;42.640;23.310;2022-09-09T07:01:21;94140.44;;;22.37;68.91
11682;BME280;5897;42.640;23.310;2022-09-09T07:03:51;94140.44;;;22.37;68.62
11682;BME280;5897;42.640;23.310;2022-09-09T07:06:19;94139.78;;;22.58;67.90
11682;BME280;5897;42.640;23.310;2022-09-09T07:08:50;94134.28;;;22.64;67.18
11682;BME280;5897;42.640;23.310;2022-09-09T07:11:18;94135.56;;;22.79;64.07
11682;BME280;5897;42.640;23.310;2022-09-09T07:13:45;94136.84;;;22.95;65.22
11682;BME280;5897;42.640;23.310;2022-09-09T07:16:14;94129.06;;;22.99;64.33
11682;BME280;5897;42.640;23.310;2022-09-09T07:18:41;94120.53;;;23.08;63.63
11682;BME280;5897;42.640;23.310;2022-09-09T07:21:10;94133.31;;;23.11;62.31
11682;BME280;5897;42.640;23.310;2022-09-09T07:23:38;94132.31;;;23.30;61.73
11682;BME280;5897;42.640;23.310;2022-09-09T07:26:08;94127.53;;;23.47;60.76
11682;BME280;5897;42.640;23.310;2022-09-09T07:28:37;94116.25;;;23.56;61.15
11682;BME280;5897;42.640;23.310;2022-09-09T07:31:05;94128.22;;;23.75;60.04
11682;BME280;5897;42.640;23.310;2022-09-09T07:33:33;94124.19;;;23.87;60.07
11682;BME280;5897;42.640;23.310;2022-09-09T07:36:05;94119.09;;;24.08;59.25
11682;BME280;5897;42.640;23.310;2022-09-09T07:38:39;94117.56;;;24.18;58.77
11682;BME280;5897;42.640;23.310;2022-09-09T07:41:08;94115.69;;;24.37;57.53
11682;BME280;5897;42.640;23.310;2022-09-09T07:43:37;94125.56;;;24.27;58.32
11682;BME280;5897;42.640;23.310;2022-09-09T07:46:04;94129.72;;;24.50;57.33
11682;BME280;5897;42.640;23.310;2022-09-09T07:48:31;94135.34;;;24.74;56.65
11682;BME280;5897;42.640;23.310;2022-09-09T07:51:06;94131.56;;;24.77;57.02
11682;BME280;5897;42.640;23.310;2022-09-09T07:53:34;94142.34;;;24.80;56.07
11682;BME280;5897;42.640;23.310;2022-09-09T07:56:08;94125.41;;;24.95;56.35
11682;BME280;5897;42.640;23.310;2022-09-09T07:58:36;94130.47;;;25.26;54.91
11682;BME280;5897;42.640;23.310;2022-09-09T08:01:07;94125.16;;;25.57;54.60
11682;BME280;5897;42.640;23.310;2022-09-09T08:03:34;94126.81;;;25.66;52.57
11682;BME280;5897;42.640;23.310;2022-09-09T08:06:02;94122.38;;;25.81;51.37
11682;BME280;5897;42.640;23.310;2022-09-09T08:08:29;94128.09;;;25.89;50.34
11682;BME280;5897;42.640;23.310;2022-09-09T08:11:02;94130.75;;;26.00;51.36
11682;BME280;5897;42.640;23.310;2022-09-09T08:13:30;94127.78;;;25.98;49.73
11682;BME280;5897;42.640;23.310;2022-09-09T08:16:04;94116.44;;;26.20;50.31
11682;BME280;5897;42.640;23.310;2022-09-09T08:18:32;94114.09;;;26.24;49.95
11682;BME280;5897;42.640;23.310;2022-09-09T08:21:05;94128.91;;;26.26;49.58
11682;BME280;5897;42.640;23.310;2022-09-09T08:23:31;94127.00;;;26.40;50.54
11682;BME280;5897;42.640;23.310;2022-09-09T08:26:03;94128.72;;;26.43;47.84
11682;BME280;5897;42.640;23.310;2022-09-09T08:28:32;94118.59;;;26.27;47.96
11682;BME280;5897;42.640;23.310;2022-09-09T08:31:05;94124.16;;;26.27;48.01
11682;BME280;5897;42.640;23.310;2022-09-09T08:33:32;94112.22;;;26.13;49.55
11682;BME280;5897;42.640;23.310;2022-09-09T08:35:59;94112.59;;;26.23;50.95
11682;BME280;5897;42.640;23.310;2022-09-09T08:38:26;94127.56;;;26.14;50.06
11682;BME280;5897;42.640;23.310;2022-09-09T08:40:58;94129.00;;;26.21;49.66
11682;BME280;5897;42.640;23.310;2022-09-09T08:43:32;94133.88;;;26.15;50.86
11682;BME280;5897;42.640;23.310;2022-09-09T08:46:05;94119.56;;;26.11;50.63
11682;BME280;5897;42.640;23.310;2022-09-09T08:48:43;94116.44;;;26.20;50.54
11682;BME280;5897;42.640;23.310;2022-09-09T08:51:14;94120.66;;;26.02;50.06
11682;BME280;5897;42.640;23.310;2022-09-09T08:53:42;94128.84;;;26.13;49.60
11682;BME280;5897;42.640;23.310;2022-09-09T08:56:14;94116.69;;;25.98;50.63
11682;BME280;5897;42.640;23.310;2022-09-09T08:58:46;94114.69;;;26.17;49.92
11682;BME280;5897;42.640;23.310;2022-09-09T09:01:42;94116.28;;;26.31;48.81
11682;BME280;5897;42.640;23.310;2022-09-09T09:04:27;94118.69;;;26.40;47.99
11682;BME280;5897;42.640;23.310;2022-09-09T09:07:05;94113.97;;;26.53;48.85
11682;BME280;5897;42.640;23.310;2022-09-09T09:09:44;94118.16;;;26.78;48.27
11682;BME280;5897;42.640;23.310;2022-09-09T09:12:17;94123.69;;;26.97;47.32
11682;BME280;5897;42.640;23.310;2022-09-09T09:14:48;94108.88;;;27.26;45.74
11682;BME280;5897;42.640;23.310;2022-09-09T09:17:17;94114.66;;;27.28;44.97
11682;BME280;5897;42.640;23.310;2022-09-09T09:19:45;94118.88;;;27.16;45.18
11682;BME280;5897;42.640;23.310;2022-09-09T09:22:17;94105.69;;;27.22;45.20
11682;BME280;5897;42.640;23.310;2022-09-09T09:24:51;94106.81;;;27.13;45.20
11682;BME280;5897;42.640;23.310;2022-09-09T09:27:25;94108.22;;;27.20;44.64
11682;BME280;5897;42.640;23.310;2022-09-09T09:29:56;94108.53;;;27.16;45.97
11682;BME280;5897;42.640;23.310;2022-09-09T09:32:26;94117.91;;;27.13;46.02
11682;BME280;5897;42.640;23.310;2022-09-09T09:34:55;94107.09;;;27.10;46.01
11682;BME280;5897;42.640;23.310;2022-09-09T09:37:27;94100.47;;;27.31;45.54
11682;BME280;5897;42.640;23.310;2022-09-09T09:39:54;94106.50;;;27.48;45.15
11682;BME280;5897;42.640;23.310;2022-09-09T09:42:22;94108.75;;;27.76;44.53
11682;BME280;5897;42.640;23.310;2022-09-09T09:44:49;94094.50;;;27.85;43.40
11682;BME280;5897;42.640;23.310;2022-09-09T09:47:18;94088.47;;;27.68;41.71
11682;BME280;5897;42.640;23.310;2022-09-09T09:49:52;94088.16;;;27.71;42.40
11682;BME280;5897;42.640;23.310;2022-09-09T09:52:22;94090.06;;;27.76;42.83
11682;BME280;5897;42.640;23.310;2022-09-09T09:54:49;94081.41;;;27.67;43.31
11682;BME280;5897;42.640;23.310;2022-09-09T09:57:17;94086.06;;;27.33;43.09
11682;BME280;5897;42.640;23.310;2022-09-09T09:59:45;94082.88;;;27.55;42.96
11682;BME280;5897;42.640;23.310;2022-09-09T10:02:19;94087.06;;;27.74;43.71
11682;BME280;5897;42.640;23.310;2022-09-09T10:04:48;94080.34;;;27.70;42.87
11682;BME280;5897;42.640;23.310;2022-09-09T10:07:18;94080.22;;;27.62;43.25
11682;BME280;5897;42.640;23.310;2022-09-09T10:09:54;94090.06;;;27.63;43.24
11682;BME280;5897;42.640;23.310;2022-09-09T10:12:30;94094.84;;;27.50;41.41
11682;BME280;5897;42.640;23.310;2022-09-09T10:15:23;94096.75;;;27.42;41.56
11682;BME280;5897;42.640;23.310;2022-09-09T10:18:04;94096.63;;;27.34;42.74
11682;BME280;5897;42.640;23.310;2022-09-09T10:20:40;94101.97;;;27.32;45.03
11682;BME280;5897;42.640;23.310;2022-09-09T10:23:20;94096.28;;;27.25;47.54
11682;BME280;5897;42.640;23.310;2022-09-09T10:26:10;94098.41;;;27.19;45.83
11682;BME280;5897;42.640;23.310;2022-09-09T10:28:58;94097.19;;;27.14;45.93
11682;BME280;5897;42.640;23.310;2022-09-09T10:31:35;94109.31;;;26.98;45.59
11682;BME280;5897;42.640;23.310;2022-09-09T10:34:15;94104.94;;;27.03;45.59
11682;BME280;5897;42.640;23.310;2022-09-09T10:36:47;94095.97;;;26.97;45.40
11682;BME280;5897;42.640;23.310;2022-09-09T10:39:20;94114.56;;;26.83;43.74
11682;BME280;5897;42.640;23.310;2022-09-09T10:41:57;94111.38;;;26.79;43.34
11682;BME280;5897;42.640;23.310;2022-09-09T10:44:49;94107.38;;;26.75;46.46
11682;BME280;5897;42.640;23.310;2022-09-09T10:47:40;94111.88;;;26.78;47.25
11682;BME280;5897;42.640;23.310;2022-09-09T10:50:23;94108.44;;;26.72;46.47
11682;BME280;5897;42.640;23.310;2022-09-09T10:53:02;94103.13;;;26.74;45.98
11682;BME280;5897;42.640;23.310;2022-09-09T10:55:38;94110.75;;;26.68;46.20
11682;BME280;5897;42.640;23.310;2022-09-09T10:58:09;94108.31;;;26.64;46.82
11682;BME280;5897;42.640;23.310;2022-09-09T11:00:40;94096.88;;;26.49;47.01
11682;BME280;5897;42.640;23.310;2022-09-09T11:03:15;94102.88;;;26.53;48.24
11682;BME280;5897;42.640;23.310;2022-09-09T11:05:49;94109.47;;;26.50;49.00
11682;BME280;5897;42.640;23.310;2022-09-09T11:08:20;94110.22;;;26.51;47.33
11682;BME280;5897;42.640;23.310;2022-09-09T11:10:52;94106.16;;;26.52;45.27
11682;BME280;5897;42.640;23.310;2022-09-09T11:13:24;94107.22;;;26.30;46.24
11682;BME280;5897;42.640;23.310;2022-09-09T11:15:58;94105.66;;;26.35;46.18
11682;BME280;5897;42.640;23.310;2022-09-09T11:18:28;94105.59;;;26.40;48.19
11682;BME280;5897;42.640;23.310;2022-09-09T11:20:59;94083.19;;;26.38;48.77
11682;BME280;5897;42.640;23.310;2022-09-09T11:23:37;94091.72;;;26.59;48.27
11682;BME280;5897;42.640;23.310;2022-09-09T11:26:07;94092.25;;;26.76;47.78
11682;BME280;5897;42.640;23.310;2022-09-09T11:28:46;94082.69;;;26.77;46.28
11682;BME280;5897;42.640;23.310;2022-09-09T11:31:33;94080.00;;;26.84;47.91
11682;BME280;5897;42.640;23.310;2022-09-09T11:34:14;94053.38;;;26.81;48.79
11682;BME280;5897;42.640;23.310;2022-09-09T11:37:00;94056.81;;;27.00;47.12
11682;BME280;5897;42.640;23.310;2022-09-09T11:39:42;94057.78;;;27.03;47.81
11682;BME280;5897;42.640;23.310;2022-09-09T11:42:22;94054.69;;;26.93;45.89
11682;BME280;5897;42.640;23.310;2022-09-09T11:44:50;94055.19;;;26.92;46.02
11682;BME280;5897;42.640;23.310;2022-09-09T11:47:20;94041.16;;;27.03;46.34
11682;BME280;5897;42.640;23.310;2022-09-09T11:49:49;93995.16;;;26.81;46.24
11682;BME280;5897;42.640;23.310;2022-09-09T11:52:23;94005.16;;;26.84;47.82
11682;BME280;5897;42.640;23.310;2022-09-09T11:54:54;94008.72;;;26.98;48.51
11682;BME280;5897;42.640;23.310;2022-09-09T11:57:25;94011.09;;;27.07;47.73
11682;BME280;5897;42.640;23.310;2022-09-09T11:59:56;94017.28;;;27.13;48.65
11682;BME280;5897;42.640;23.310;2022-09-09T12:02:25;94021.59;;;27.27;48.78
11682;BME280;5897;42.640;23.310;2022-09-09T12:04:59;94023.00;;;27.46;47.20
11682;BME280;5897;42.640;23.310;2022-09-09T12:07:32;94017.78;;;27.69;45.51
11682;BME280;5897;42.640;23.310;2022-09-09T12:10:04;94010.63;;;27.86;46.25
11682;BME280;5897;42.640;23.310;2022-09-09T12:12:34;94007.06;;;28.12;46.98
11682;BME280;5897;42.640;23.310;2022-09-09T12:15:18;94010.00;;;28.40;46.49
11682;BME280;5897;42.640;23.310;2022-09-09T12:17:47;94012.88;;;28.47;45.07
11682;BME280;5897;42.640;23.310;2022-09-09T12:20:17;94003.50;;;28.58;41.95
11682;BME280;5897;42.640;23.310;2022-09-09T12:23:15;93998.88;;;28.73;42.16
11682;BME280;5897;42.640;23.310;2022-09-09T12:25:54;93998.00;;;28.78;43.44
11682;BME280;5897;42.640;23.310;2022-09-09T12:28:27;93995.44;;;29.01;44.43
11682;BME280;5897;42.640;23.310;2022-09-09T12:31:05;93988.94;;;29.26;43.73
11682;BME280;5897;42.640;23.310;2022-09-09T12:33:34;93989.53;;;29.32;43.52
11682;BME280;5897;42.640;23.310;2022-09-09T12:36:03;93985.63;;;29.28;43.39
11682;BME280;5897;42.640;23.310;2022-09-09T12:38:35;93971.34;;;29.03;42.64
11682;BME280;5897;42.640;23.310;2022-09-09T12:41:02;93968.03;;;29.05;44.34
11682;BME280;5897;42.640;23.310;2022-09-09T12:43:29;93979.31;;;28.86;43.10
11682;BME280;5897;42.640;23.310;2022-09-09T12:46:00;93986.53;;;28.82;43.58
11682;BME280;5897;42.640;23.310;2022-09-09T12:48:33;93985.91;;;28.76;44.01
11682;BME280;5897;42.640;23.310;2022-09-09T12:51:01;93989.16;;;28.67;43.99
11682;BME280;5897;42.640;23.310;2022-09-09T12:53:34;93976.56;;;28.66;44.83
11682;BME280;5897;42.640;23.310;2022-09-09T12:56:05;93967.00;;;28.74;44.84
11682;BME280;5897;42.640;23.310;2022-09-09T12:58:35;93959.50;;;28.90;44.46
11682;BME280;5897;42.640;23.310;2022-09-09T13:01:04;93963.66;;;28.76;44.27
11682;BME280;5897;42.640;23.310;2022-09-09T13:03:32;93960.41;;;28.64;43.92
11682;BME280;5897;42.640;23.310;2022-09-09T13:06:11;93961.00;;;28.70;42.49
11682;BME280;5897;42.640;23.310;2022-09-09T13:08:39;93961.53;;;28.48;43.66
11682;BME280;5897;42.640;23.310;2022-09-09T13:11:10;93950.66;;;28.50;44.45
11682;BME280;5897;42.640;23.310;2022-09-09T13:13:40;93953.13;;;28.41;44.43
11682;BME280;5897;42.640;23.310;2022-09-09T13:16:20;93946.31;;;28.29;45.06
11682;BME280;5897;42.640;23.310;2022-09-09T13:18:47;93960.59;;;28.46;44.55
11682;BME280;5897;42.640;23.310;2022-09-09T13:21:14;93958.03;;;28.48;44.17